Buttzville, New Jersey
Current Conditions -  °F | °C
As of 1:53 AM on Thursday 23 Oct 2014 (Local Time) from KSMQ Reporting Station
Overcast Overcast  
Wind Chill: 53°   Ceiling: 2800
Heat Index: 53°   Visibility: 10mi
Dew Point: 46°   Wind: 16mph
Humidity: 77%   Direction: 350°N
Pressure: 29.74"   Gusts: 24mph
Location:  40.83°N, 75.01°W
Report Text: KSMQ 230553Z AUTO 35014G21KT 10SM BKN028 OVC036 12/08 A2974 RMK AO2 SLP070 60018 T01170078 10117 20111 58006
Loading
Personal Weather Stations






























Interactive Weather Map
Tropical Storm Tracking
New forecast layout! Learn more

10-Day Weather Forecast

Advertisements
Track Severe Weather on mobile